Time;durP1;ratioP1;P1;durP2;ratioP2;P2;SDS_P1;SDS_P2;PMS_P1;PMS_P2;Temp;Humidity;BMP_temperature;BMP_pressure;BME280_temperature;BME280_humidity;BME280_pressure;Samples;Min_cycle;Max_cycle;Signal;HPM_P1;HPM_P2
2022/09/01 00:00:19;;;;;;;0.80;0.80;;;16.00;94.30;;;;;;612860;234;26632;-65
2022/09/01 00:02:46;;;;;;;3.00;0.95;;;16.10;95.00;;;;;;605741;235;26637;-65
2022/09/01 00:05:14;;;;;;;0.95;0.90;;;16.10;94.00;;;;;;609255;232;26592;-65
2022/09/01 00:07:42;;;;;;;0.90;0.90;;;16.10;95.10;;;;;;611737;234;26578;-65
2022/09/01 00:10:10;;;;;;;0.70;0.70;;;16.10;94.30;;;;;;612685;234;26637;-65
2022/09/01 00:12:37;;;;;;;0.73;0.73;;;16.00;94.10;;;;;;612629;234;26813;-65
2022/09/01 00:15:05;;;;;;;0.90;0.90;;;16.10;94.40;;;;;;611784;234;26572;-65
2022/09/01 00:17:33;;;;;;;0.98;0.75;;;16.00;94.60;;;;;;606506;235;26566;-65
2022/09/01 00:19:59;;;;;;;1.40;0.82;;;16.00;94.90;;;;;;605271;235;26872;-65
2022/09/01 00:22:26;;;;;;;2.00;0.60;;;16.00;94.90;;;;;;610479;235;26635;-65
2022/09/01 00:24:54;;;;;;;0.88;0.88;;;16.00;93.50;;;;;;611090;235;26835;-65
2022/09/01 00:27:22;;;;;;;0.65;0.65;;;15.90;94.50;;;;;;606248;235;26629;-65
2022/09/01 00:29:49;;;;;;;0.98;0.98;;;16.00;94.20;;;;;;604655;236;26586;-65
2022/09/01 00:32:18;;;;;;;0.90;0.90;;;15.90;94.90;;;;;;606795;235;26604;-65
2022/09/01 00:34:45;;;;;;;0.82;0.82;;;15.90;94.10;;;;;;610845;235;26657;-65
2022/09/01 00:37:13;;;;;;;0.68;0.68;;;15.90;94.10;;;;;;607657;234;26629;-65
2022/09/01 00:39:40;;;;;;;0.70;0.70;;;15.90;94.40;;;;;;609841;235;26624;-65
2022/09/01 00:42:08;;;;;;;0.70;0.70;;;15.90;95.00;;;;;;611231;235;26835;-65
2022/09/01 00:44:37;;;;;;;0.98;0.98;;;15.80;94.30;;;;;;612373;235;26591;-65
2022/09/01 00:47:05;;;;;;;0.85;0.77;;;15.80;94.30;;;;;;612252;235;26596;-65
2022/09/01 00:49:34;;;;;;;0.90;0.90;;;15.70;93.90;;;;;;608656;235;26621;-65
2022/09/01 00:52:02;;;;;;;0.70;0.70;;;15.70;95.40;;;;;;610311;235;26650;-65
2022/09/01 00:54:29;;;;;;;1.00;0.90;;;15.60;94.00;;;;;;611095;235;26850;-65
2022/09/01 00:56:56;;;;;;;1.55;0.90;;;15.60;95.80;;;;;;612145;235;26651;-65
2022/09/01 00:59:23;;;;;;;0.60;0.60;;;15.50;94.40;;;;;;610690;234;26859;-65
2022/09/01 01:01:51;;;;;;;1.73;0.88;;;15.50;94.50;;;;;;608665;233;26595;-65
2022/09/01 01:04:18;;;;;;;0.85;0.85;;;15.50;95.10;;;;;;612079;234;26857;-65
2022/09/01 01:06:48;;;;;;;0.77;0.77;;;15.50;95.30;;;;;;611219;234;26579;-65
2022/09/01 01:09:14;;;;;;;0.88;0.70;;;15.50;95.30;;;;;;606463;234;26870;-65
2022/09/01 01:11:43;;;;;;;0.70;0.68;;;15.50;94.90;;;;;;611573;234;26595;-65
2022/09/01 01:14:11;;;;;;;0.73;0.68;;;15.40;95.40;;;;;;610201;236;27225;-65
2022/09/01 01:16:40;;;;;;;0.93;0.90;;;15.40;95.40;;;;;;610781;236;26556;-64
2022/09/01 01:19:05;;;;;;;1.17;1.08;;;15.40;95.40;;;;;;612158;235;26842;-65
2022/09/01 01:24:19;;;;;;;0.80;0.80;;;15.40;96.10;;;;;;605759;235;26802;-65
2022/09/01 01:26:46;;;;;;;0.70;0.70;;;15.40;94.90;;;;;;610565;235;26556;-65
2022/09/01 01:29:13;;;;;;;0.70;0.70;;;15.30;96.10;;;;;;605294;235;26856;-65
2022/09/01 01:31:40;;;;;;;0.80;0.80;;;15.30;95.90;;;;;;608403;235;26626;-65
2022/09/01 01:34:08;;;;;;;0.90;0.90;;;15.30;95.50;;;;;;609883;235;27028;-65
2022/09/01 01:36:36;;;;;;;1.17;0.80;;;15.20;96.00;;;;;;605729;236;26574;-65
2022/09/01 01:39:05;;;;;;;0.77;0.77;;;15.20;95.60;;;;;;609177;235;26545;-65
2022/09/01 01:41:32;;;;;;;0.70;0.70;;;15.10;95.60;;;;;;610083;235;26895;-65
2022/09/01 01:44:00;;;;;;;0.70;0.70;;;15.10;96.30;;;;;;612281;234;26640;-65
2022/09/01 01:46:27;;;;;;;0.68;0.68;;;15.10;96.50;;;;;;610674;235;26856;-65
2022/09/01 01:48:55;;;;;;;1.23;0.70;;;15.00;96.70;;;;;;604801;232;26594;-65
2022/09/01 01:51:26;;;;;;;0.95;0.93;;;15.00;96.70;;;;;;612003;235;26666;-65
2022/09/01 01:53:51;;;;;;;1.15;0.98;;;15.00;96.70;;;;;;612266;234;26871;-65
2022/09/01 01:56:18;;;;;;;0.68;0.68;;;15.00;96.50;;;;;;612240;235;26647;-65
2022/09/01 01:58:46;;;;;;;0.62;0.60;;;15.00;96.90;;;;;;611860;235;26839;-65
2022/09/01 02:01:15;;;;;;;1.50;0.70;;;15.00;96.90;;;;;;608135;235;26876;-65
2022/09/01 02:03:40;;;;;;;0.70;0.70;;;15.00;97.70;;;;;;609523;235;26638;-65
2022/09/01 02:06:08;;;;;;;1.95;0.90;;;15.00;97.00;;;;;;612521;234;27177;-65
2022/09/01 02:08:35;;;;;;;0.93;0.80;;;14.90;97.60;;;;;;614172;234;26669;-65
2022/09/01 02:11:02;;;;;;;0.70;0.70;;;15.00;97.00;;;;;;614210;234;26623;-65
2022/09/01 02:13:30;;;;;;;0.80;0.80;;;14.80;97.50;;;;;;609690;233;26634;-65
2022/09/01 02:15:58;;;;;;;0.80;0.80;;;14.70;98.00;;;;;;611350;234;26629;-65
2022/09/01 02:18:27;;;;;;;1.73;0.70;;;14.60;99.10;;;;;;608736;234;26605;-65
2022/09/01 02:20:54;;;;;;;0.68;0.62;;;14.60;99.10;;;;;;605710;234;26822;-65
2022/09/01 02:23:23;;;;;;;0.60;0.60;;;14.50;98.80;;;;;;605577;235;26616;-64
2022/09/01 02:25:52;;;;;;;0.75;0.75;;;14.40;98.50;;;;;;607156;235;26593;-65
2022/09/01 02:28:18;;;;;;;0.75;0.75;;;14.30;99.20;;;;;;606970;235;26600;-65
2022/09/01 02:30:48;;;;;;;0.90;0.90;;;14.20;99.90;;;;;;612761;235;26662;-65
2022/09/01 02:33:17;;;;;;;0.62;0.62;;;14.20;99.90;;;;;;610512;235;26864;-66
2022/09/01 02:35:41;;;;;;;0.85;0.73;;;14.20;99.90;;;;;;609768;235;26662;-65
2022/09/01 02:38:08;;;;;;;0.95;0.88;;;14.20;99.80;;;;;;606421;235;26798;-65
2022/09/01 02:40:39;;;;;;;0.73;0.73;;;14.20;99.90;;;;;;610167;235;26658;-65
2022/09/01 02:43:02;;;;;;;0.80;0.80;;;14.20;99.90;;;;;;610476;235;26888;-65
2022/09/01 02:45:30;;;;;;;0.85;0.77;;;14.20;99.90;;;;;;609649;235;26627;-65
2022/09/01 02:47:57;;;;;;;0.93;0.93;;;14.10;99.90;;;;;;612626;234;26809;-65
2022/09/01 02:50:25;;;;;;;1.02;0.70;;;14.10;99.90;;;;;;610318;234;26593;-65
2022/09/01 02:52:51;;;;;;;0.90;0.82;;;14.10;99.90;;;;;;608870;235;26914;-65
2022/09/01 02:55:21;;;;;;;0.80;0.80;;;14.00;99.90;;;;;;604596;235;26587;-65
2022/09/01 02:57:48;;;;;;;0.82;0.82;;;13.90;99.90;;;;;;609391;235;26792;-65
2022/09/01 03:00:27;;;;;;;0.70;0.70;;;13.90;99.90;;;;;;609479;235;26566;-65
2022/09/01 03:02:50;;;;;;;1.10;0.98;;;13.70;99.90;;;;;;610506;235;26595;-65
2022/09/01 03:05:18;;;;;;;0.70;0.70;;;13.70;99.90;;;;;;613722;234;26991;-65
2022/09/01 03:07:42;;;;;;;0.65;0.62;;;13.60;99.90;;;;;;611988;235;26630;-65
2022/09/01 03:10:10;;;;;;;0.70;0.70;;;13.50;99.90;;;;;;608254;234;26943;-65
2022/09/01 03:12:37;;;;;;;0.60;0.60;;;13.50;99.90;;;;;;604648;237;26586;-65
2022/09/01 03:15:06;;;;;;;0.45;0.45;;;13.50;99.90;;;;;;604732;234;27521;-65
2022/09/01 03:17:32;;;;;;;0.62;0.60;;;13.50;99.90;;;;;;610807;235;26648;-65
2022/09/01 03:20:00;;;;;;;0.75;0.70;;;13.30;99.90;;;;;;609500;235;26908;-65
2022/09/01 03:22:28;;;;;;;0.70;0.70;;;13.30;99.90;;;;;;609908;236;26932;-65
2022/09/01 03:24:55;;;;;;;0.60;0.60;;;13.30;99.90;;;;;;610411;233;26586;-65
2022/09/01 03:27:21;;;;;;;2.05;0.98;;;13.30;99.90;;;;;;612238;233;27164;-65
2022/09/01 03:29:49;;;;;;;1.60;0.77;;;13.20;99.90;;;;;;612035;234;26597;-64
2022/09/01 03:32:16;;;;;;;1.02;0.75;;;13.10;99.90;;;;;;609484;234;27015;-65
2022/09/01 03:34:44;;;;;;;0.73;0.73;;;13.10;99.90;;;;;;610291;235;26589;-65
2022/09/01 03:37:12;;;;;;;1.08;0.90;;;13.00;99.90;;;;;;612443;234;26635;-65
2022/09/01 03:39:40;;;;;;;0.70;0.70;;;12.90;99.90;;;;;;606809;234;26631;-66
2022/09/01 03:42:10;;;;;;;0.77;0.70;;;12.90;99.90;;;;;;610321;235;26664;-66
2022/09/01 03:44:39;;;;;;;1.75;0.82;;;12.90;99.90;;;;;;610957;235;26869;-65
2022/09/01 03:47:02;;;;;;;0.62;0.60;;;12.80;99.90;;;;;;609890;235;26538;-66
2022/09/01 03:49:30;;;;;;;0.85;0.85;;;12.90;99.90;;;;;;606748;235;26582;-66
2022/09/01 03:51:59;;;;;;;1.55;0.80;;;12.80;99.90;;;;;;604762;236;26627;-66
2022/09/01 03:54:28;;;;;;;0.80;0.80;;;12.90;99.90;;;;;;606075;235;26609;-64
2022/09/01 03:56:53;;;;;;;0.70;0.70;;;12.80;99.90;;;;;;610751;235;26648;-64
2022/09/01 03:59:21;;;;;;;1.10;1.00;;;12.80;99.90;;;;;;608825;234;26662;-65
2022/09/01 04:01:49;;;;;;;1.48;0.85;;;12.70;99.90;;;;;;607741;235;26880;-65
2022/09/01 04:04:16;;;;;;;0.80;0.80;;;12.70;99.90;;;;;;608386;235;26881;-64
2022/09/01 04:06:44;;;;;;;1.75;1.02;;;12.70;99.90;;;;;;604600;238;26578;-65
2022/09/01 04:09:12;;;;;;;0.60;0.60;;;12.70;99.90;;;;;;609267;235;26596;-64
2022/09/01 04:11:40;;;;;;;0.57;0.57;;;12.70;99.90;;;;;;609859;235;26601;-64
2022/09/01 04:14:08;;;;;;;0.73;0.73;;;12.70;99.90;;;;;;611177;235;26598;-65
2022/09/01 04:21:44;;;;;;;0.70;0.70;;;12.60;99.90;;;;;;614341;234;26881;-65
2022/09/01 04:24:13;;;;;;;0.95;0.60;;;12.60;99.90;;;;;;610957;234;26628;-68
2022/09/01 04:26:39;;;;;;;1.23;0.75;;;12.50;99.90;;;;;;607199;235;26674;-67
2022/09/01 04:29:07;;;;;;;1.10;0.80;;;12.40;99.90;;;;;;608142;236;26660;-67
2022/09/01 04:31:35;;;;;;;0.80;0.80;;;12.40;99.90;;;;;;612008;235;26641;-67
2022/09/01 04:34:08;;;;;;;1.12;0.70;;;12.40;99.90;;;;;;610520;235;26646;-66
2022/09/01 04:36:32;;;;;;;4.10;1.17;;;12.50;99.90;;;;;;605916;235;26829;-67
2022/09/01 04:38:59;;;;;;;0.70;0.70;;;12.40;99.90;;;;;;610793;234;26813;-67
2022/09/01 04:41:29;;;;;;;0.93;0.90;;;12.50;99.90;;;;;;613349;234;26640;-66
2022/09/01 04:43:56;;;;;;;0.82;0.82;;;12.50;99.90;;;;;;610524;234;26799;-66
2022/09/01 04:46:23;;;;;;;1.23;0.85;;;12.50;99.90;;;;;;612141;234;26607;-66
2022/09/01 04:48:50;;;;;;;1.75;0.80;;;12.60;99.90;;;;;;610410;235;27100;-67
2022/09/01 04:51:19;;;;;;;0.90;0.77;;;12.50;99.90;;;;;;612872;233;26655;-67
2022/09/01 04:53:47;;;;;;;1.67;1.00;;;12.50;99.90;;;;;;611671;235;26638;-67
2022/09/01 04:56:13;;;;;;;1.02;1.02;;;12.50;99.90;;;;;;612452;235;26572;-67
2022/09/01 04:58:39;;;;;;;0.70;0.70;;;12.60;99.90;;;;;;612471;235;26828;-67
2022/09/01 05:01:12;;;;;;;1.48;0.90;;;12.60;99.90;;;;;;609927;235;26670;-67
2022/09/01 05:03:39;;;;;;;0.80;0.80;;;12.60;99.90;;;;;;605431;235;27253;-66
2022/09/01 05:06:07;;;;;;;0.80;0.80;;;12.70;99.90;;;;;;604909;235;26578;-66
2022/09/01 05:08:34;;;;;;;0.90;0.90;;;12.60;99.90;;;;;;607634;235;26878;-66
2022/09/01 05:11:01;;;;;;;0.98;0.98;;;12.70;99.90;;;;;;605101;235;26603;-66
2022/09/01 05:13:28;;;;;;;0.70;0.70;;;12.70;99.90;;;;;;604782;235;26543;-67
2022/09/01 05:16:01;;;;;;;0.80;0.80;;;12.80;99.90;;;;;;604432;235;26585;-67
2022/09/01 05:18:28;;;;;;;1.10;1.00;;;12.80;99.90;;;;;;604593;236;26546;-67
2022/09/01 05:20:56;;;;;;;0.80;0.80;;;12.80;99.90;;;;;;608194;235;26599;-66
2022/09/01 05:23:25;;;;;;;0.95;0.90;;;12.90;99.90;;;;;;604632;235;26606;-66
2022/09/01 05:25:53;;;;;;;0.70;0.70;;;12.90;99.90;;;;;;606668;235;26647;-66
2022/09/01 05:28:18;;;;;;;0.90;0.73;;;12.90;99.90;;;;;;606743;235;26583;-69
2022/09/01 05:30:46;;;;;;;6.78;1.25;;;13.00;99.90;;;;;;611794;234;26886;-66
2022/09/01 05:33:15;;;;;;;4.82;1.00;;;13.00;99.90;;;;;;610111;235;26631;-66
2022/09/01 05:35:42;;;;;;;1.08;0.90;;;13.10;99.90;;;;;;605359;235;26803;-67
2022/09/01 05:38:11;;;;;;;0.80;0.80;;;13.20;99.90;;;;;;607613;236;26609;-66
2022/09/01 05:40:39;;;;;;;1.98;1.10;;;13.20;99.90;;;;;;609663;236;26593;-66
2022/09/01 05:43:03;;;;;;;1.23;1.12;;;13.20;99.90;;;;;;608482;235;26646;-66
2022/09/01 05:45:30;;;;;;;4.30;1.40;;;13.30;99.90;;;;;;610888;235;26627;-66
2022/09/01 05:47:58;;;;;;;2.22;1.17;;;13.50;99.90;;;;;;610871;233;26627;-66
2022/09/01 05:50:27;;;;;;;3.97;1.30;;;13.50;99.90;;;;;;607792;234;26622;-67
2022/09/01 05:52:53;;;;;;;3.80;1.40;;;13.50;99.90;;;;;;609902;234;26890;-66
2022/09/01 05:55:21;;;;;;;2.37;1.62;;;13.50;99.90;;;;;;610594;234;26627;-67
2022/09/01 05:57:47;;;;;;;8.05;1.50;;;13.60;99.90;;;;;;612428;234;26824;-68
2022/09/01 06:00:16;;;;;;;3.28;1.42;;;13.80;99.90;;;;;;610630;235;26645;-67
2022/09/01 06:02:42;;;;;;;59.67;12.35;;;13.90;99.90;;;;;;610864;235;26642;-67
2022/09/01 06:05:12;;;;;;;47.78;10.00;;;14.00;99.90;;;;;;610143;235;26665;-67
2022/09/01 06:07:41;;;;;;;74.45;14.90;;;14.10;99.90;;;;;;608551;232;26647;-66
2022/09/01 06:10:07;;;;;;;54.15;12.27;;;14.20;99.90;;;;;;609641;235;26612;-67
2022/09/01 06:12:34;;;;;;;39.65;6.35;;;14.20;99.90;;;;;;609785;235;26608;-67
2022/09/01 06:15:02;;;;;;;20.40;3.95;;;14.50;99.90;;;;;;609440;235;26607;-66
2022/09/01 06:17:30;;;;;;;22.17;5.32;;;14.60;99.90;;;;;;605086;235;26595;-67
2022/09/01 06:19:58;;;;;;;67.80;12.40;;;14.70;99.90;;;;;;606514;235;26583;-66
2022/09/01 06:22:26;;;;;;;38.20;10.18;;;15.00;99.90;;;;;;610662;235;26580;-66
2022/09/01 06:24:53;;;;;;;54.33;11.38;;;14.90;99.90;;;;;;609428;235;26619;-66
2022/09/01 06:27:20;;;;;;;50.72;10.00;;;15.00;99.90;;;;;;605627;235;26944;-65
2022/09/01 06:29:54;;;;;;;44.17;9.73;;;15.10;99.90;;;;;;605478;235;26550;-65
2022/09/01 06:32:15;;;;;;;43.75;9.52;;;15.20;99.90;;;;;;601102;238;26652;-65
2022/09/01 06:34:43;;;;;;;42.65;8.82;;;15.30;99.90;;;;;;609110;235;27165;-65
2022/09/01 06:37:09;;;;;;;29.65;7.45;;;15.30;99.90;;;;;;610885;235;26638;-65
2022/09/01 06:39:37;;;;;;;34.17;7.82;;;15.40;99.90;;;;;;604536;237;26607;-66
2022/09/01 06:42:08;;;;;;;33.17;7.68;;;15.60;99.90;;;;;;608677;235;26850;-66
2022/09/01 06:44:33;;;;;;;36.17;7.85;;;15.50;99.90;;;;;;608740;235;26867;-66
2022/09/01 06:47:00;;;;;;;25.12;7.35;;;15.60;99.90;;;;;;604525;235;26577;-66
2022/09/01 06:49:31;;;;;;;29.95;7.53;;;15.70;99.90;;;;;;604927;235;26602;-66
2022/09/01 06:51:58;;;;;;;28.02;7.20;;;15.80;99.90;;;;;;610250;235;26805;-66
2022/09/01 06:54:26;;;;;;;24.63;6.47;;;15.90;99.90;;;;;;607404;235;26651;-66
2022/09/01 06:56:54;;;;;;;27.67;7.12;;;16.00;99.90;;;;;;609478;235;26633;-66
2022/09/01 06:59:20;;;;;;;22.77;6.05;;;16.00;99.90;;;;;;610564;233;26620;-66
2022/09/01 07:01:50;;;;;;;19.67;5.53;;;16.20;99.90;;;;;;607979;231;26662;-65
2022/09/01 07:04:20;;;;;;;13.10;4.07;;;16.30;99.90;;;;;;608431;234;26676;-65
2022/09/01 07:06:44;;;;;;;15.35;5.28;;;16.40;99.90;;;;;;610224;234;26668;-65
2022/09/01 07:09:14;;;;;;;12.68;3.70;;;16.50;99.90;;;;;;604845;236;26639;-65
2022/09/01 07:11:43;;;;;;;6.00;2.45;;;16.70;99.90;;;;;;608919;236;26630;-66
2022/09/01 07:14:14;;;;;;;5.35;2.22;;;16.60;99.90;;;;;;608422;235;26578;-63
2022/09/01 07:16:39;;;;;;;4.90;2.05;;;16.70;98.70;;;;;;604581;238;26627;-64
2022/09/01 07:19:09;;;;;;;4.35;2.22;;;16.70;99.80;;;;;;604430;238;26586;-64
2022/09/01 07:21:32;;;;;;;1.77;1.50;;;16.80;99.50;;;;;;604528;238;26628;-64
2022/09/01 07:24:03;;;;;;;2.22;1.45;;;16.80;98.10;;;;;;611565;235;26948;-64
2022/09/01 07:26:27;;;;;;;2.70;1.30;;;16.90;99.10;;;;;;610672;230;26596;-64
2022/09/01 07:28:54;;;;;;;3.53;1.55;;;17.00;97.70;;;;;;607288;236;27250;-65
2022/09/01 07:31:22;;;;;;;2.03;1.20;;;17.10;97.10;;;;;;604815;237;26594;-65
2022/09/01 07:33:50;;;;;;;1.55;1.42;;;17.10;97.40;;;;;;612051;232;26578;-65
2022/09/01 07:36:18;;;;;;;1.87;1.08;;;17.10;95.90;;;;;;612803;235;26581;-65
2022/09/01 07:38:50;;;;;;;3.35;1.30;;;17.10;95.90;;;;;;612845;234;26615;-64
2022/09/01 07:41:12;;;;;;;1.52;1.10;;;17.10;97.20;;;;;;612383;235;26612;-64
2022/09/01 07:43:43;;;;;;;1.48;0.93;;;17.10;97.50;;;;;;612863;234;27051;-65
2022/09/01 07:46:07;;;;;;;1.30;1.20;;;17.20;96.60;;;;;;604962;235;26574;-65
2022/09/01 07:48:34;;;;;;;2.08;1.23;;;17.30;95.50;;;;;;604610;237;26847;-65
2022/09/01 07:51:02;;;;;;;3.95;1.00;;;17.20;95.00;;;;;;607484;235;26814;-65
2022/09/01 07:53:30;;;;;;;2.72;1.30;;;17.30;95.30;;;;;;606431;232;26597;-64
2022/09/01 07:55:57;;;;;;;0.80;0.80;;;17.20;95.30;;;;;;609682;235;26606;-66
2022/09/01 07:58:25;;;;;;;1.10;1.00;;;17.40;94.50;;;;;;611581;235;26642;-65
2022/09/01 08:00:54;;;;;;;1.90;0.75;;;17.40;95.00;;;;;;607385;235;26631;-65
2022/09/01 08:03:22;;;;;;;1.70;0.98;;;17.50;95.00;;;;;;609464;235;26645;-65
2022/09/01 08:05:52;;;;;;;0.80;0.80;;;17.50;95.90;;;;;;608630;235;26642;-65
2022/09/01 08:08:17;;;;;;;0.95;0.95;;;17.50;95.90;;;;;;606195;235;26576;-65
2022/09/01 08:10:45;;;;;;;2.17;0.77;;;17.60;96.20;;;;;;608775;232;27207;-65
2022/09/01 08:13:11;;;;;;;2.65;1.10;;;17.70;95.10;;;;;;607730;234;26574;-65
2022/09/01 08:15:39;;;;;;;1.02;1.02;;;17.70;94.00;;;;;;609467;234;26632;-65
2022/09/01 08:18:07;;;;;;;2.53;0.88;;;17.70;95.00;;;;;;608967;234;26622;-65
2022/09/01 08:20:36;;;;;;;3.22;1.40;;;17.80;94.10;;;;;;610633;234;26592;-65
2022/09/01 08:23:03;;;;;;;7.85;1.10;;;17.90;94.70;;;;;;607714;235;26629;-65
2022/09/01 08:25:30;;;;;;;3.47;0.98;;;17.90;94.70;;;;;;610238;234;26634;-65
2022/09/01 08:27:57;;;;;;;1.75;0.90;;;18.00;95.20;;;;;;609347;234;26577;-64
2022/09/01 08:30:24;;;;;;;4.82;1.25;;;18.10;93.40;;;;;;612181;235;26847;-64
2022/09/01 08:32:51;;;;;;;1.37;0.95;;;18.20;94.00;;;;;;612326;234;26592;-64
2022/09/01 08:35:19;;;;;;;68.03;12.82;;;18.20;94.60;;;;;;610215;235;26862;-63
2022/09/01 08:37:46;;;;;;;83.53;17.30;;;18.20;92.50;;;;;;610063;236;26621;-64
2022/09/01 08:40:14;;;;;;;34.63;9.02;;;18.30;92.30;;;;;;610160;236;26885;-64
2022/09/01 08:42:55;;;;;;;108.50;19.48;;;18.30;93.40;;;;;;610086;236;26623;-66
2022/09/01 08:45:24;;;;;;;99.32;18.25;;;18.30;91.40;;;;;;608210;236;26653;-64
2022/09/01 08:47:52;;;;;;;93.80;18.60;;;18.40;93.60;;;;;;604183;238;26599;-65
2022/09/01 08:50:20;;;;;;;60.10;16.00;;;18.50;92.30;;;;;;604459;238;26571;-65
2022/09/01 08:52:57;;;;;;;74.40;14.50;;;18.60;91.10;;;;;;604540;235;26579;-66
2022/09/01 08:55:28;;;;;;;59.60;13.32;;;18.60;91.20;;;;;;604278;238;26824;-66
2022/09/01 08:57:56;;;;;;;61.88;12.70;;;18.60;86.60;;;;;;604314;235;26558;-66
2022/09/01 09:00:23;;;;;;;35.92;9.23;;;18.60;91.40;;;;;;609533;235;26850;-65
2022/09/01 09:03:01;;;;;;;47.90;10.55;;;18.50;89.60;;;;;;609735;236;26584;-66
2022/09/01 09:05:30;;;;;;;20.52;5.95;;;18.60;89.00;;;;;;607367;235;26843;-66
2022/09/01 09:08:03;;;;;;;23.33;6.30;;;18.60;89.10;;;;;;604395;238;26845;-66
2022/09/01 09:10:32;;;;;;;13.75;3.67;;;18.80;87.10;;;;;;604574;238;26629;-66
2022/09/01 09:13:12;;;;;;;9.82;3.35;;;18.70;86.90;;;;;;603611;235;26558;-65
2022/09/01 09:15:40;;;;;;;17.25;5.35;;;18.90;89.60;;;;;;611484;235;26580;-64
2022/09/01 09:18:13;;;;;;;14.07;5.05;;;18.90;89.50;;;;;;609995;235;26631;-63
2022/09/01 09:20:40;;;;;;;12.02;3.97;;;19.00;88.40;;;;;;604133;237;26609;-65
2022/09/01 09:23:07;;;;;;;11.40;4.30;;;19.20;90.00;;;;;;608866;233;26793;-63
2022/09/01 09:25:34;;;;;;;2.20;1.10;;;19.30;90.80;;;;;;610897;235;26586;-65
2022/09/01 09:28:02;;;;;;;2.70;1.17;;;19.40;90.50;;;;;;610753;234;26880;-64
2022/09/01 09:30:31;;;;;;;2.62;0.90;;;19.30;86.80;;;;;;608347;235;26855;-63
2022/09/01 09:33:02;;;;;;;3.70;1.15;;;19.30;86.70;;;;;;605140;232;26874;-65
2022/09/01 09:35:29;;;;;;;3.17;1.00;;;19.20;87.80;;;;;;609082;236;26591;-64
2022/09/01 09:37:55;;;;;;;2.55;1.00;;;19.30;86.70;;;;;;609883;236;26587;-64
2022/09/01 09:40:22;;;;;;;2.60;1.05;;;19.30;87.30;;;;;;609708;235;26670;-64
2022/09/01 09:43:02;;;;;;;3.92;1.15;;;19.30;81.60;;;;;;610297;236;26607;-63
2022/09/01 09:45:34;;;;;;;3.65;0.88;;;19.40;85.20;;;;;;610357;235;26609;-64
2022/09/01 09:48:06;;;;;;;0.62;0.62;;;19.60;81.60;;;;;;610323;236;26616;-64
2022/09/01 09:50:34;;;;;;;0.77;0.73;;;19.70;79.60;;;;;;612028;235;26869;-64
2022/09/01 09:53:13;;;;;;;2.10;0.85;;;20.00;85.00;;;;;;612676;235;26587;-64
2022/09/01 09:56:03;;;;;;;1.70;0.68;;;20.00;85.10;;;;;;612613;235;26816;-65
2022/09/01 09:58:33;;;;;;;1.27;0.70;;;20.60;86.70;;;;;;609370;235;26607;-64
2022/09/01 10:01:03;;;;;;;0.70;0.65;;;20.50;85.50;;;;;;610623;234;26614;-64
2022/09/01 10:03:35;;;;;;;2.22;0.90;;;20.80;72.90;;;;;;609398;235;26567;-64
2022/09/01 10:06:01;;;;;;;0.70;0.70;;;20.90;73.20;;;;;;609844;236;26867;-64
2022/09/01 10:08:43;;;;;;;0.52;0.52;;;20.90;72.50;;;;;;609872;236;26815;-65
2022/09/01 10:11:06;;;;;;;0.77;0.68;;;20.90;71.40;;;;;;609450;236;27232;-65
2022/09/01 10:13:34;;;;;;;0.80;0.80;;;20.90;71.60;;;;;;609951;235;26861;-65
2022/09/01 10:16:01;;;;;;;1.27;0.70;;;21.00;71.90;;;;;;609704;236;26581;-65
2022/09/01 10:18:30;;;;;;;0.60;0.52;;;20.80;74.00;;;;;;609850;235;26891;-65
2022/09/01 10:21:02;;;;;;;1.05;0.60;;;20.70;78.60;;;;;;609815;236;26858;-65
2022/09/01 10:23:30;;;;;;;0.82;0.73;;;20.70;70.50;;;;;;609615;236;26839;-65
2022/09/01 10:25:58;;;;;;;0.55;0.55;;;20.80;68.40;;;;;;609898;235;26629;-65
2022/09/01 10:28:26;;;;;;;1.33;0.73;;;20.80;73.40;;;;;;607444;236;26662;-65
2022/09/01 10:30:53;;;;;;;0.82;0.80;;;20.70;68.50;;;;;;609010;232;26867;-65
2022/09/01 10:33:20;;;;;;;2.28;0.80;;;20.80;74.20;;;;;;612457;234;26632;-65
2022/09/01 10:35:48;;;;;;;0.50;0.50;;;21.20;71.00;;;;;;614157;233;26827;-65
2022/09/01 10:38:16;;;;;;;1.83;0.80;;;21.10;74.00;;;;;;613450;234;26819;-65
2022/09/01 10:40:47;;;;;;;1.20;0.80;;;21.00;68.50;;;;;;613406;234;26638;-65
2022/09/01 10:43:22;;;;;;;0.62;0.62;;;21.00;64.90;;;;;;610412;234;26614;-66
2022/09/01 10:45:50;;;;;;;3.10;0.70;;;21.10;65.50;;;;;;609101;235;26607;-65
2022/09/01 10:48:37;;;;;;;1.00;0.70;;;21.10;64.60;;;;;;611225;235;27248;-65
2022/09/01 10:51:34;;;;;;;1.65;0.60;;;21.10;65.00;;;;;;610671;235;26867;-64
2022/09/01 10:54:04;;;;;;;1.20;0.75;;;21.20;63.90;;;;;;601654;237;26597;-65
2022/09/01 10:56:36;;;;;;;0.40;0.40;;;21.30;65.90;;;;;;606664;235;26583;-65
2022/09/01 10:59:06;;;;;;;1.12;0.80;;;21.50;68.80;;;;;;609385;235;26585;-64
2022/09/01 11:02:09;;;;;;;0.50;0.50;;;22.00;66.20;;;;;;608072;235;26614;-64
2022/09/01 11:05:06;;;;;;;0.88;0.77;;;21.90;63.00;;;;;;607803;236;26671;-65
2022/09/01 11:07:34;;;;;;;1.83;0.85;;;21.50;60.90;;;;;;601794;236;26605;-65
2022/09/01 11:10:32;;;;;;;1.25;0.93;;;21.30;67.90;;;;;;604667;238;26591;-65
2022/09/01 11:13:26;;;;;;;2.10;0.70;;;21.00;65.40;;;;;;610088;235;26672;-65
2022/09/01 11:15:54;;;;;;;1.08;0.57;;;21.60;64.80;;;;;;607437;235;26643;-65
2022/09/01 11:18:25;;;;;;;0.70;0.60;;;21.80;65.00;;;;;;612209;235;26593;-64
2022/09/01 11:20:51;;;;;;;0.75;0.60;;;21.80;65.20;;;;;;612332;235;27202;-65
2022/09/01 11:23:23;;;;;;;0.60;0.60;;;21.90;65.30;;;;;;612490;235;26630;-65
2022/09/01 11:25:53;;;;;;;0.95;0.57;;;21.90;61.10;;;;;;612832;234;26607;-65
2022/09/01 11:28:37;;;;;;;0.70;0.65;;;22.00;61.20;;;;;;612665;235;26606;-65
2022/09/01 11:31:22;;;;;;;0.80;0.80;;;22.00;60.00;;;;;;612809;234;26637;-64
2022/09/01 11:34:10;;;;;;;0.82;0.82;;;22.00;65.60;;;;;;612383;231;26855;-65
2022/09/01 11:36:52;;;;;;;1.20;0.80;;;22.10;63.90;;;;;;611323;235;27178;-65
2022/09/01 11:39:31;;;;;;;0.70;0.70;;;22.10;60.90;;;;;;606077;234;26577;-65
2022/09/01 11:42:00;;;;;;;0.60;0.60;;;22.40;63.20;;;;;;604544;237;26615;-64
2022/09/01 11:44:34;;;;;;;2.15;0.60;;;23.20;59.90;;;;;;604445;238;26595;-64
2022/09/01 11:47:02;;;;;;;0.45;0.45;;;23.20;59.70;;;;;;606139;235;26587;-65
2022/09/01 11:49:29;;;;;;;0.60;0.60;;;23.10;55.00;;;;;;605664;234;26631;-65
2022/09/01 11:51:57;;;;;;;0.50;0.50;;;22.90;55.00;;;;;;605322;236;26866;-65
2022/09/01 11:54:24;;;;;;;1.95;0.73;;;22.80;57.80;;;;;;605350;233;26601;-65
2022/09/01 11:56:51;;;;;;;1.00;0.57;;;22.90;59.70;;;;;;605111;237;27092;-64
2022/09/01 11:59:31;;;;;;;1.87;0.90;;;22.80;56.00;;;;;;606283;235;26638;-65
2022/09/01 12:02:00;;;;;;;0.62;0.60;;;22.80;54.20;;;;;;612635;235;26706;-65
2022/09/01 12:04:27;;;;;;;2.42;0.70;;;22.80;54.20;;;;;;611777;235;26640;-64
2022/09/01 12:06:59;;;;;;;1.33;0.55;;;22.50;55.20;;;;;;609692;236;26609;-64
2022/09/01 12:09:34;;;;;;;2.10;0.62;;;22.50;57.30;;;;;;610146;235;26837;-64
2022/09/01 12:12:01;;;;;;;0.88;0.70;;;22.50;54.80;;;;;;610055;236;26662;-65
2022/09/01 12:14:29;;;;;;;0.77;0.77;;;22.60;58.80;;;;;;610198;235;26632;-65
2022/09/01 12:17:00;;;;;;;0.62;0.62;;;22.80;59.50;;;;;;607750;231;26570;-65
2022/09/01 12:19:27;;;;;;;1.25;0.70;;;22.80;59.50;;;;;;612608;235;26637;-64
2022/09/01 12:21:55;;;;;;;0.85;0.70;;;22.80;57.30;;;;;;612500;234;26606;-64
2022/09/01 12:24:23;;;;;;;1.90;0.85;;;22.20;58.90;;;;;;612574;235;26602;-64
2022/09/01 12:26:53;;;;;;;1.58;0.80;;;22.00;60.00;;;;;;612828;234;26609;-64
2022/09/01 12:29:19;;;;;;;1.42;0.80;;;22.00;59.80;;;;;;612750;235;26619;-64
2022/09/01 12:31:47;;;;;;;1.12;0.93;;;22.20;58.70;;;;;;612811;235;26620;-64
2022/09/01 12:34:25;;;;;;;0.73;0.70;;;22.40;59.10;;;;;;612441;234;26632;-65
2022/09/01 12:37:10;;;;;;;0.50;0.50;;;22.40;59.00;;;;;;612433;235;26650;-64
2022/09/01 12:39:38;;;;;;;0.95;0.60;;;22.40;58.90;;;;;;611871;235;26856;-64
2022/09/01 12:42:23;;;;;;;0.93;0.80;;;22.50;58.40;;;;;;612453;234;26610;-64
2022/09/01 12:44:50;;;;;;;0.60;0.60;;;22.20;57.90;;;;;;612464;234;26830;-64
2022/09/01 12:47:30;;;;;;;0.60;0.60;;;22.20;58.50;;;;;;612484;234;26640;-64
2022/09/01 12:49:57;;;;;;;0.70;0.70;;;22.30;63.10;;;;;;607673;235;26668;-64
2022/09/01 12:52:24;;;;;;;1.02;0.95;;;22.40;63.50;;;;;;608261;235;26664;-64
2022/09/01 12:55:09;;;;;;;1.27;0.80;;;22.40;60.90;;;;;;612408;234;26591;-64
2022/09/01 12:57:42;;;;;;;0.52;0.52;;;22.70;62.00;;;;;;609139;235;26665;-64
2022/09/01 13:00:18;;;;;;;0.70;0.70;;;22.70;62.10;;;;;;605572;237;26838;-65
2022/09/01 13:03:01;;;;;;;0.62;0.62;;;23.40;58.10;;;;;;605448;237;26590;-65